sensor_id;sensor_type;location;lat;lon;timestamp;pressure;altitude;pressure_sealevel;temperature;humidity
12897;BME280;6516;35.028;32.372;2024-02-14T00:00:15;98836.03;;;14.28;100.00
12897;BME280;6516;35.028;32.372;2024-02-14T00:02:44;98839.69;;;14.26;100.00
12897;BME280;6516;35.028;32.372;2024-02-14T00:05:15;98835.97;;;14.30;100.00
12897;BME280;6516;35.028;32.372;2024-02-14T00:07:43;98823.31;;;14.35;100.00
12897;BME280;6516;35.028;32.372;2024-02-14T00:10:12;98831.19;;;14.36;100.00
12897;BME280;6516;35.028;32.372;2024-02-14T00:12:40;98833.16;;;14.33;100.00
12897;BME280;6516;35.028;32.372;2024-02-14T00:15:10;98841.78;;;14.36;100.00
12897;BME280;6516;35.028;32.372;2024-02-14T00:17:40;98847.41;;;14.46;100.00
12897;BME280;6516;35.028;32.372;2024-02-14T00:20:10;98841.72;;;14.53;100.00
12897;BME280;6516;35.028;32.372;2024-02-14T00:22:38;98849.56;;;14.55;100.00
12897;BME280;6516;35.028;32.372;2024-02-14T00:25:07;98845.47;;;14.49;100.00
12897;BME280;6516;35.028;32.372;2024-02-14T00:27:35;98857.66;;;14.36;100.00
12897;BME280;6516;35.028;32.372;2024-02-14T00:30:03;98859.97;;;14.42;100.00
12897;BME280;6516;35.028;32.372;2024-02-14T00:32:32;98865.94;;;14.46;100.00
12897;BME280;6516;35.028;32.372;2024-02-14T00:35:04;98863.75;;;14.54;100.00
12897;BME280;6516;35.028;32.372;2024-02-14T00:37:34;98861.53;;;14.62;100.00
12897;BME280;6516;35.028;32.372;2024-02-14T00:40:02;98854.03;;;14.70;100.00
12897;BME280;6516;35.028;32.372;2024-02-14T00:42:30;98835.16;;;14.76;100.00
12897;BME280;6516;35.028;32.372;2024-02-14T00:44:58;98833.88;;;14.83;100.00
12897;BME280;6516;35.028;32.372;2024-02-14T00:47:25;98813.88;;;14.93;100.00
12897;BME280;6516;35.028;32.372;2024-02-14T00:49:53;98801.63;;;15.06;100.00
12897;BME280;6516;35.028;32.372;2024-02-14T00:52:22;98815.63;;;15.23;100.00
12897;BME280;6516;35.028;32.372;2024-02-14T00:54:50;98827.16;;;15.22;100.00
12897;BME280;6516;35.028;32.372;2024-02-14T00:57:18;98829.41;;;15.14;100.00
12897;BME280;6516;35.028;32.372;2024-02-14T00:59:45;98834.03;;;15.11;100.00
12897;BME280;6516;35.028;32.372;2024-02-14T01:02:13;98826.53;;;15.03;100.00
12897;BME280;6516;35.028;32.372;2024-02-14T01:04:41;98831.56;;;14.92;100.00
12897;BME280;6516;35.028;32.372;2024-02-14T01:07:09;98835.75;;;14.81;100.00
12897;BME280;6516;35.028;32.372;2024-02-14T01:09:38;98831.56;;;14.77;100.00
12897;BME280;6516;35.028;32.372;2024-02-14T01:12:06;98832.06;;;14.68;100.00
12897;BME280;6516;35.028;32.372;2024-02-14T01:14:34;98840.50;;;14.59;100.00
12897;BME280;6516;35.028;32.372;2024-02-14T01:17:03;98846.91;;;14.55;100.00
12897;BME280;6516;35.028;32.372;2024-02-14T01:19:30;98856.91;;;14.50;100.00
12897;BME280;6516;35.028;32.372;2024-02-14T01:21:59;98872.72;;;14.51;100.00
12897;BME280;6516;35.028;32.372;2024-02-14T01:24:27;98892.06;;;14.53;100.00
12897;BME280;6516;35.028;32.372;2024-02-14T01:26:57;98918.16;;;14.44;100.00
12897;BME280;6516;35.028;32.372;2024-02-14T01:29:25;98939.50;;;14.41;100.00
12897;BME280;6516;35.028;32.372;2024-02-14T01:31:53;98912.47;;;14.34;100.00
12897;BME280;6516;35.028;32.372;2024-02-14T01:34:21;98912.88;;;14.27;100.00
12897;BME280;6516;35.028;32.372;2024-02-14T01:36:49;98908.50;;;14.09;100.00
12897;BME280;6516;35.028;32.372;2024-02-14T01:39:17;98923.41;;;13.94;100.00
12897;BME280;6516;35.028;32.372;2024-02-14T01:41:45;98911.66;;;13.83;100.00
12897;BME280;6516;35.028;32.372;2024-02-14T01:44:15;98918.78;;;13.81;100.00
12897;BME280;6516;35.028;32.372;2024-02-14T01:46:43;98920.41;;;13.66;100.00
12897;BME280;6516;35.028;32.372;2024-02-14T01:49:12;98902.81;;;13.48;100.00
12897;BME280;6516;35.028;32.372;2024-02-14T01:51:42;98886.31;;;13.43;100.00
12897;BME280;6516;35.028;32.372;2024-02-14T01:54:12;98868.34;;;13.33;100.00
12897;BME280;6516;35.028;32.372;2024-02-14T01:56:40;98862.22;;;13.32;100.00
12897;BME280;6516;35.028;32.372;2024-02-14T01:59:09;98854.44;;;13.29;100.00
12897;BME280;6516;35.028;32.372;2024-02-14T02:01:38;98839.66;;;13.25;100.00
12897;BME280;6516;35.028;32.372;2024-02-14T02:04:06;98838.81;;;13.25;100.00
12897;BME280;6516;35.028;32.372;2024-02-14T02:06:34;98822.31;;;13.20;100.00
12897;BME280;6516;35.028;32.372;2024-02-14T02:09:03;98814.22;;;13.23;100.00
12897;BME280;6516;35.028;32.372;2024-02-14T02:11:31;98801.00;;;13.23;100.00
12897;BME280;6516;35.028;32.372;2024-02-14T02:14:09;98801.81;;;13.25;100.00
12897;BME280;6516;35.028;32.372;2024-02-14T02:16:40;98792.88;;;13.27;100.00
12897;BME280;6516;35.028;32.372;2024-02-14T02:19:08;98785.94;;;13.25;100.00
12897;BME280;6516;35.028;32.372;2024-02-14T02:21:36;98785.41;;;13.18;100.00
12897;BME280;6516;35.028;32.372;2024-02-14T02:24:05;98777.31;;;13.04;100.00
12897;BME280;6516;35.028;32.372;2024-02-14T02:26:33;98776.00;;;12.94;100.00
12897;BME280;6516;35.028;32.372;2024-02-14T02:29:01;98777.31;;;12.86;100.00
12897;BME280;6516;35.028;32.372;2024-02-14T02:31:31;98776.34;;;12.70;100.00
12897;BME280;6516;35.028;32.372;2024-02-14T02:33:59;98771.03;;;12.53;100.00
12897;BME280;6516;35.028;32.372;2024-02-14T02:36:27;98782.75;;;12.29;100.00
12897;BME280;6516;35.028;32.372;2024-02-14T02:38:56;98790.28;;;12.18;100.00
12897;BME280;6516;35.028;32.372;2024-02-14T02:41:25;98791.41;;;11.74;100.00
12897;BME280;6516;35.028;32.372;2024-02-14T02:43:52;98799.00;;;11.61;100.00
12897;BME280;6516;35.028;32.372;2024-02-14T02:46:20;98802.72;;;11.56;100.00
12897;BME280;6516;35.028;32.372;2024-02-14T02:48:48;98804.97;;;11.45;100.00
12897;BME280;6516;35.028;32.372;2024-02-14T02:51:17;98802.69;;;11.37;100.00
12897;BME280;6516;35.028;32.372;2024-02-14T02:53:45;98801.34;;;11.27;100.00
12897;BME280;6516;35.028;32.372;2024-02-14T02:56:13;98799.72;;;11.25;100.00
12897;BME280;6516;35.028;32.372;2024-02-14T02:58:42;98806.94;;;11.19;100.00
12897;BME280;6516;35.028;32.372;2024-02-14T03:01:10;98811.09;;;11.25;100.00
12897;BME280;6516;35.028;32.372;2024-02-14T03:03:38;98822.44;;;11.27;100.00
12897;BME280;6516;35.028;32.372;2024-02-14T03:06:07;98815.56;;;11.23;100.00
12897;BME280;6516;35.028;32.372;2024-02-14T03:08:34;98813.66;;;11.27;100.00
12897;BME280;6516;35.028;32.372;2024-02-14T03:11:04;98820.78;;;11.25;100.00
12897;BME280;6516;35.028;32.372;2024-02-14T03:13:34;98826.94;;;11.23;100.00
12897;BME280;6516;35.028;32.372;2024-02-14T03:16:08;98818.22;;;11.23;100.00
12897;BME280;6516;35.028;32.372;2024-02-14T03:18:37;98830.50;;;11.23;100.00
12897;BME280;6516;35.028;32.372;2024-02-14T03:21:05;98836.59;;;11.25;100.00
12897;BME280;6516;35.028;32.372;2024-02-14T03:23:33;98854.28;;;11.21;100.00
12897;BME280;6516;35.028;32.372;2024-02-14T03:26:01;98848.63;;;11.30;100.00
12897;BME280;6516;35.028;32.372;2024-02-14T03:28:33;98855.81;;;11.47;100.00
12897;BME280;6516;35.028;32.372;2024-02-14T03:31:00;98849.41;;;11.74;100.00
12897;BME280;6516;35.028;32.372;2024-02-14T03:33:30;98856.69;;;11.89;100.00
12897;BME280;6516;35.028;32.372;2024-02-14T03:35:58;98847.78;;;11.91;100.00
12897;BME280;6516;35.028;32.372;2024-02-14T03:38:25;98848.56;;;11.93;100.00
12897;BME280;6516;35.028;32.372;2024-02-14T03:40:53;98844.00;;;11.97;100.00
12897;BME280;6516;35.028;32.372;2024-02-14T03:43:24;98837.94;;;11.95;100.00
12897;BME280;6516;35.028;32.372;2024-02-14T03:45:51;98845.09;;;11.93;100.00
12897;BME280;6516;35.028;32.372;2024-02-14T03:48:20;98856.47;;;11.93;100.00
12897;BME280;6516;35.028;32.372;2024-02-14T03:50:49;98873.22;;;11.92;100.00
12897;BME280;6516;35.028;32.372;2024-02-14T03:53:17;98866.19;;;11.93;100.00
12897;BME280;6516;35.028;32.372;2024-02-14T03:55:45;98880.13;;;11.95;100.00
12897;BME280;6516;35.028;32.372;2024-02-14T03:58:12;98884.63;;;11.93;100.00
12897;BME280;6516;35.028;32.372;2024-02-14T04:00:41;98888.13;;;11.93;100.00
12897;BME280;6516;35.028;32.372;2024-02-14T04:03:11;98887.13;;;11.96;100.00
12897;BME280;6516;35.028;32.372;2024-02-14T04:05:39;98890.56;;;11.98;100.00
12897;BME280;6516;35.028;32.372;2024-02-14T04:08:08;98888.81;;;11.97;100.00
12897;BME280;6516;35.028;32.372;2024-02-14T04:10:36;98897.56;;;11.99;100.00
12897;BME280;6516;35.028;32.372;2024-02-14T04:13:04;98893.00;;;12.02;100.00
12897;BME280;6516;35.028;32.372;2024-02-14T04:15:32;98892.28;;;11.99;100.00
12897;BME280;6516;35.028;32.372;2024-02-14T04:18:00;98904.53;;;12.00;100.00
12897;BME280;6516;35.028;32.372;2024-02-14T04:20:29;98907.22;;;11.98;100.00
12897;BME280;6516;35.028;32.372;2024-02-14T04:22:57;98913.44;;;11.97;100.00
12897;BME280;6516;35.028;32.372;2024-02-14T04:25:27;98918.78;;;11.96;100.00
12897;BME280;6516;35.028;32.372;2024-02-14T04:27:55;98913.66;;;11.93;100.00
12897;BME280;6516;35.028;32.372;2024-02-14T04:30:22;98920.63;;;11.94;100.00
12897;BME280;6516;35.028;32.372;2024-02-14T04:32:50;98916.19;;;11.94;100.00
12897;BME280;6516;35.028;32.372;2024-02-14T04:35:20;98909.28;;;11.92;100.00
12897;BME280;6516;35.028;32.372;2024-02-14T04:37:47;98903.09;;;11.93;100.00
12897;BME280;6516;35.028;32.372;2024-02-14T04:40:15;98896.91;;;11.94;100.00
12897;BME280;6516;35.028;32.372;2024-02-14T04:42:45;98890.63;;;11.96;100.00
12897;BME280;6516;35.028;32.372;2024-02-14T04:45:13;98895.03;;;11.96;100.00
12897;BME280;6516;35.028;32.372;2024-02-14T04:47:41;98891.34;;;12.00;100.00
12897;BME280;6516;35.028;32.372;2024-02-14T04:50:09;98890.50;;;11.99;100.00
12897;BME280;6516;35.028;32.372;2024-02-14T04:52:37;98886.06;;;12.00;100.00
12897;BME280;6516;35.028;32.372;2024-02-14T04:55:06;98889.41;;;12.03;100.00
12897;BME280;6516;35.028;32.372;2024-02-14T04:57:34;98892.00;;;12.05;100.00
12897;BME280;6516;35.028;32.372;2024-02-14T05:00:06;98896.34;;;12.06;100.00
12897;BME280;6516;35.028;32.372;2024-02-14T05:02:35;98894.50;;;12.08;100.00
12897;BME280;6516;35.028;32.372;2024-02-14T05:05:04;98893.31;;;12.15;100.00
12897;BME280;6516;35.028;32.372;2024-02-14T05:07:34;98894.16;;;12.15;100.00
12897;BME280;6516;35.028;32.372;2024-02-14T05:10:01;98898.31;;;12.21;100.00
12897;BME280;6516;35.028;32.372;2024-02-14T05:12:29;98905.19;;;12.25;100.00
12897;BME280;6516;35.028;32.372;2024-02-14T05:14:57;98902.31;;;12.29;100.00
12897;BME280;6516;35.028;32.372;2024-02-14T05:17:26;98908.19;;;12.36;100.00
12897;BME280;6516;35.028;32.372;2024-02-14T05:19:54;98906.41;;;12.36;100.00
12897;BME280;6516;35.028;32.372;2024-02-14T05:22:22;98907.06;;;12.41;100.00
12897;BME280;6516;35.028;32.372;2024-02-14T05:24:50;98915.56;;;12.48;100.00
12897;BME280;6516;35.028;32.372;2024-02-14T05:27:18;98919.63;;;12.55;100.00
12897;BME280;6516;35.028;32.372;2024-02-14T05:29:46;98920.22;;;12.61;100.00
12897;BME280;6516;35.028;32.372;2024-02-14T05:32:13;98924.56;;;12.62;100.00
12897;BME280;6516;35.028;32.372;2024-02-14T05:34:43;98927.72;;;12.70;100.00
12897;BME280;6516;35.028;32.372;2024-02-14T05:37:10;98929.78;;;12.64;100.00
12897;BME280;6516;35.028;32.372;2024-02-14T05:39:39;98934.91;;;12.67;100.00
12897;BME280;6516;35.028;32.372;2024-02-14T05:42:07;98943.63;;;12.69;100.00
12897;BME280;6516;35.028;32.372;2024-02-14T05:44:34;98948.91;;;12.69;100.00
12897;BME280;6516;35.028;32.372;2024-02-14T05:47:02;98944.78;;;12.63;100.00
12897;BME280;6516;35.028;32.372;2024-02-14T05:49:30;98950.88;;;12.64;100.00
12897;BME280;6516;35.028;32.372;2024-02-14T05:52:00;98955.19;;;12.66;100.00
12897;BME280;6516;35.028;32.372;2024-02-14T05:54:27;98957.75;;;12.68;100.00
12897;BME280;6516;35.028;32.372;2024-02-14T05:56:55;98965.91;;;12.63;100.00
12897;BME280;6516;35.028;32.372;2024-02-14T05:59:23;98972.13;;;12.81;100.00
12897;BME280;6516;35.028;32.372;2024-02-14T06:01:51;98968.78;;;12.77;100.00
12897;BME280;6516;35.028;32.372;2024-02-14T06:04:19;98971.75;;;12.70;100.00
12897;BME280;6516;35.028;32.372;2024-02-14T06:06:46;98971.03;;;12.66;100.00
12897;BME280;6516;35.028;32.372;2024-02-14T06:09:16;98969.03;;;12.71;100.00
12897;BME280;6516;35.028;32.372;2024-02-14T06:11:43;98980.59;;;12.69;100.00
12897;BME280;6516;35.028;32.372;2024-02-14T06:14:11;98981.59;;;12.66;100.00
12897;BME280;6516;35.028;32.372;2024-02-14T06:16:39;98984.69;;;12.76;100.00
12897;BME280;6516;35.028;32.372;2024-02-14T06:19:09;98976.75;;;12.76;100.00
12897;BME280;6516;35.028;32.372;2024-02-14T06:21:37;98972.56;;;12.90;100.00
12897;BME280;6516;35.028;32.372;2024-02-14T06:24:05;98974.34;;;12.90;100.00
12897;BME280;6516;35.028;32.372;2024-02-14T06:26:34;98975.31;;;13.07;100.00
12897;BME280;6516;35.028;32.372;2024-02-14T06:29:02;98969.94;;;13.27;100.00
12897;BME280;6516;35.028;32.372;2024-02-14T06:31:30;98965.34;;;13.49;100.00
12897;BME280;6516;35.028;32.372;2024-02-14T06:33:58;98962.47;;;13.54;100.00
12897;BME280;6516;35.028;32.372;2024-02-14T06:36:25;98965.91;;;13.56;100.00
12897;BME280;6516;35.028;32.372;2024-02-14T06:38:53;98959.06;;;13.69;100.00
12897;BME280;6516;35.028;32.372;2024-02-14T06:41:21;98956.88;;;13.60;100.00
12897;BME280;6516;35.028;32.372;2024-02-14T06:43:50;98955.41;;;13.71;100.00
12897;BME280;6516;35.028;32.372;2024-02-14T06:46:18;98956.41;;;13.69;100.00
12897;BME280;6516;35.028;32.372;2024-02-14T06:48:45;98952.25;;;13.82;100.00
12897;BME280;6516;35.028;32.372;2024-02-14T06:51:13;98962.38;;;13.91;100.00
12897;BME280;6516;35.028;32.372;2024-02-14T06:53:41;98955.59;;;14.02;100.00
12897;BME280;6516;35.028;32.372;2024-02-14T06:56:09;98973.03;;;13.89;100.00
12897;BME280;6516;35.028;32.372;2024-02-14T06:58:36;98977.72;;;14.01;100.00
12897;BME280;6516;35.028;32.372;2024-02-14T07:01:06;98985.09;;;13.95;100.00
12897;BME280;6516;35.028;32.372;2024-02-14T07:03:33;98994.59;;;13.99;100.00
12897;BME280;6516;35.028;32.372;2024-02-14T07:06:00;99017.81;;;14.11;100.00
12897;BME280;6516;35.028;32.372;2024-02-14T07:08:28;99027.47;;;14.12;100.00
12897;BME280;6516;35.028;32.372;2024-02-14T07:10:56;99033.25;;;14.20;100.00
12897;BME280;6516;35.028;32.372;2024-02-14T07:13:23;99038.50;;;14.21;100.00
12897;BME280;6516;35.028;32.372;2024-02-14T07:15:51;99038.81;;;14.14;100.00
12897;BME280;6516;35.028;32.372;2024-02-14T07:18:20;99044.69;;;14.20;100.00
12897;BME280;6516;35.028;32.372;2024-02-14T07:20:48;99055.69;;;14.30;100.00
12897;BME280;6516;35.028;32.372;2024-02-14T07:23:16;99067.03;;;14.15;100.00
12897;BME280;6516;35.028;32.372;2024-02-14T07:25:45;99070.97;;;14.25;100.00
12897;BME280;6516;35.028;32.372;2024-02-14T07:28:13;99076.41;;;14.22;100.00
12897;BME280;6516;35.028;32.372;2024-02-14T07:30:41;99076.94;;;14.28;100.00
12897;BME280;6516;35.028;32.372;2024-02-14T07:33:09;99087.16;;;14.36;100.00
12897;BME280;6516;35.028;32.372;2024-02-14T07:35:38;99079.06;;;14.39;100.00
12897;BME280;6516;35.028;32.372;2024-02-14T07:38:06;99080.53;;;14.61;100.00
12897;BME280;6516;35.028;32.372;2024-02-14T07:40:33;99076.88;;;14.64;100.00
12897;BME280;6516;35.028;32.372;2024-02-14T07:43:01;99084.72;;;14.99;100.00
12897;BME280;6516;35.028;32.372;2024-02-14T07:45:29;99075.88;;;15.16;100.00
12897;BME280;6516;35.028;32.372;2024-02-14T07:47:57;99076.13;;;15.44;100.00
12897;BME280;6516;35.028;32.372;2024-02-14T07:50:24;99071.97;;;15.86;100.00
12897;BME280;6516;35.028;32.372;2024-02-14T07:52:55;99074.97;;;15.96;100.00
12897;BME280;6516;35.028;32.372;2024-02-14T07:55:22;99075.78;;;16.27;100.00
12897;BME280;6516;35.028;32.372;2024-02-14T07:57:50;99074.41;;;16.20;100.00
12897;BME280;6516;35.028;32.372;2024-02-14T08:00:19;99090.00;;;16.42;100.00
12897;BME280;6516;35.028;32.372;2024-02-14T08:02:49;99084.44;;;16.60;100.00
12897;BME280;6516;35.028;32.372;2024-02-14T08:05:17;99088.34;;;16.84;100.00
12897;BME280;6516;35.028;32.372;2024-02-14T08:07:45;99098.22;;;17.10;100.00
12897;BME280;6516;35.028;32.372;2024-02-14T08:10:14;99102.00;;;17.50;100.00
12897;BME280;6516;35.028;32.372;2024-02-14T08:12:42;99104.16;;;17.71;100.00
12897;BME280;6516;35.028;32.372;2024-02-14T08:15:10;99109.16;;;17.90;100.00
12897;BME280;6516;35.028;32.372;2024-02-14T08:17:39;99102.53;;;17.83;100.00
12897;BME280;6516;35.028;32.372;2024-02-14T08:20:07;99106.16;;;17.68;100.00
12897;BME280;6516;35.028;32.372;2024-02-14T08:22:36;99110.72;;;17.66;100.00
12897;BME280;6516;35.028;32.372;2024-02-14T08:25:04;99114.53;;;17.62;100.00
12897;BME280;6516;35.028;32.372;2024-02-14T08:27:34;99117.56;;;17.70;100.00
12897;BME280;6516;35.028;32.372;2024-02-14T08:30:02;99127.34;;;17.69;100.00
12897;BME280;6516;35.028;32.372;2024-02-14T08:32:33;99122.13;;;17.68;100.00
12897;BME280;6516;35.028;32.372;2024-02-14T08:35:01;99125.56;;;17.70;100.00
12897;BME280;6516;35.028;32.372;2024-02-14T08:37:29;99127.19;;;17.44;100.00
12897;BME280;6516;35.028;32.372;2024-02-14T08:39:57;99118.13;;;17.33;100.00
12897;BME280;6516;35.028;32.372;2024-02-14T08:42:25;99124.72;;;17.12;100.00
12897;BME280;6516;35.028;32.372;2024-02-14T08:44:54;99131.75;;;17.13;100.00
12897;BME280;6516;35.028;32.372;2024-02-14T08:47:22;99133.09;;;17.06;100.00
12897;BME280;6516;35.028;32.372;2024-02-14T08:49:49;99129.56;;;17.05;100.00
12897;BME280;6516;35.028;32.372;2024-02-14T08:52:17;99141.06;;;17.06;100.00
12897;BME280;6516;35.028;32.372;2024-02-14T08:54:45;99133.28;;;17.17;100.00
12897;BME280;6516;35.028;32.372;2024-02-14T08:57:13;99141.00;;;17.21;100.00
12897;BME280;6516;35.028;32.372;2024-02-14T08:59:41;99132.47;;;17.30;100.00
12897;BME280;6516;35.028;32.372;2024-02-14T09:02:14;99136.31;;;17.54;100.00
12897;BME280;6516;35.028;32.372;2024-02-14T09:04:42;99135.44;;;17.54;100.00
12897;BME280;6516;35.028;32.372;2024-02-14T09:07:10;99136.31;;;17.54;100.00
12897;BME280;6516;35.028;32.372;2024-02-14T09:09:39;99136.69;;;17.48;100.00
12897;BME280;6516;35.028;32.372;2024-02-14T09:12:07;99130.22;;;17.52;100.00
12897;BME280;6516;35.028;32.372;2024-02-14T09:14:34;99135.00;;;17.61;100.00
12897;BME280;6516;35.028;32.372;2024-02-14T09:17:02;99126.88;;;17.63;100.00
12897;BME280;6516;35.028;32.372;2024-02-14T09:19:32;99123.19;;;17.79;100.00
12897;BME280;6516;35.028;32.372;2024-02-14T09:21:59;99126.38;;;17.98;100.00
12897;BME280;6516;35.028;32.372;2024-02-14T09:24:27;99131.63;;;18.00;100.00
12897;BME280;6516;35.028;32.372;2024-02-14T09:26:55;99130.81;;;18.12;100.00
12897;BME280;6516;35.028;32.372;2024-02-14T09:29:23;99124.59;;;18.25;100.00
12897;BME280;6516;35.028;32.372;2024-02-14T09:31:51;99122.66;;;18.41;100.00
12897;BME280;6516;35.028;32.372;2024-02-14T09:34:19;99117.50;;;18.52;100.00
12897;BME280;6516;35.028;32.372;2024-02-14T09:36:49;99120.59;;;18.59;100.00
12897;BME280;6516;35.028;32.372;2024-02-14T09:39:19;99112.22;;;18.90;100.00
12897;BME280;6516;35.028;32.372;2024-02-14T09:41:51;99107.28;;;18.59;100.00
12897;BME280;6516;35.028;32.372;2024-02-14T09:44:20;99112.44;;;18.48;100.00
12897;BME280;6516;35.028;32.372;2024-02-14T09:46:49;99102.69;;;18.61;100.00
12897;BME280;6516;35.028;32.372;2024-02-14T09:49:17;99109.16;;;18.57;100.00
12897;BME280;6516;35.028;32.372;2024-02-14T09:51:46;99108.50;;;18.41;100.00
12897;BME280;6516;35.028;32.372;2024-02-14T09:54:17;99117.03;;;18.46;100.00
12897;BME280;6516;35.028;32.372;2024-02-14T09:56:48;99103.41;;;18.63;100.00
12897;BME280;6516;35.028;32.372;2024-02-14T09:59:19;99104.47;;;18.87;100.00
12897;BME280;6516;35.028;32.372;2024-02-14T10:01:47;99107.84;;;18.76;100.00
12897;BME280;6516;35.028;32.372;2024-02-14T10:04:16;99108.91;;;17.80;100.00
12897;BME280;6516;35.028;32.372;2024-02-14T10:06:45;99110.91;;;17.91;100.00
12897;BME280;6516;35.028;32.372;2024-02-14T10:09:20;99102.63;;;17.81;100.00
12897;BME280;6516;35.028;32.372;2024-02-14T10:11:48;99101.19;;;17.76;100.00
12897;BME280;6516;35.028;32.372;2024-02-14T10:14:15;99097.69;;;17.89;100.00
12897;BME280;6516;35.028;32.372;2024-02-14T10:16:43;99100.03;;;17.94;100.00
12897;BME280;6516;35.028;32.372;2024-02-14T10:19:15;99102.22;;;17.87;100.00
12897;BME280;6516;35.028;32.372;2024-02-14T10:21:43;99097.91;;;17.99;100.00
12897;BME280;6516;35.028;32.372;2024-02-14T10:24:11;99097.19;;;17.97;100.00
12897;BME280;6516;35.028;32.372;2024-02-14T10:26:41;99099.88;;;17.83;100.00
12897;BME280;6516;35.028;32.372;2024-02-14T10:29:11;99097.44;;;17.52;100.00
12897;BME280;6516;35.028;32.372;2024-02-14T10:31:40;99102.66;;;17.67;100.00
12897;BME280;6516;35.028;32.372;2024-02-14T10:34:09;99097.59;;;17.63;100.00
12897;BME280;6516;35.028;32.372;2024-02-14T10:36:37;99094.22;;;17.87;100.00
12897;BME280;6516;35.028;32.372;2024-02-14T10:39:07;99099.91;;;17.69;100.00
12897;BME280;6516;35.028;32.372;2024-02-14T10:41:36;99092.25;;;17.77;100.00
12897;BME280;6516;35.028;32.372;2024-02-14T10:44:06;99079.53;;;17.82;100.00
12897;BME280;6516;35.028;32.372;2024-02-14T10:46:40;99085.53;;;17.71;100.00
12897;BME280;6516;35.028;32.372;2024-02-14T10:49:10;99089.00;;;18.00;100.00
12897;BME280;6516;35.028;32.372;2024-02-14T10:51:39;99090.19;;;17.82;100.00
12897;BME280;6516;35.028;32.372;2024-02-14T10:54:11;99091.94;;;17.95;100.00
12897;BME280;6516;35.028;32.372;2024-02-14T10:56:41;99100.41;;;18.02;100.00
12897;BME280;6516;35.028;32.372;2024-02-14T10:59:16;99096.88;;;18.01;100.00
12897;BME280;6516;35.028;32.372;2024-02-14T11:01:46;99093.16;;;18.04;100.00
12897;BME280;6516;35.028;32.372;2024-02-14T11:04:15;99101.22;;;18.16;100.00
12897;BME280;6516;35.028;32.372;2024-02-14T11:06:44;99107.31;;;17.64;100.00
12897;BME280;6516;35.028;32.372;2024-02-14T11:09:13;99107.22;;;17.79;100.00
12897;BME280;6516;35.028;32.372;2024-02-14T11:11:42;99103.16;;;17.46;100.00
12897;BME280;6516;35.028;32.372;2024-02-14T11:14:15;99105.97;;;17.43;100.00
12897;BME280;6516;35.028;32.372;2024-02-14T11:16:45;99110.91;;;17.49;100.00
12897;BME280;6516;35.028;32.372;2024-02-14T11:19:13;99105.81;;;17.46;100.00
12897;BME280;6516;35.028;32.372;2024-02-14T11:21:42;99106.69;;;17.31;100.00
12897;BME280;6516;35.028;32.372;2024-02-14T11:24:12;99102.34;;;17.30;100.00
12897;BME280;6516;35.028;32.372;2024-02-14T11:26:46;99106.69;;;17.17;100.00
12897;BME280;6516;35.028;32.372;2024-02-14T11:29:16;99104.31;;;17.12;100.00
12897;BME280;6516;35.028;32.372;2024-02-14T11:31:44;99104.81;;;17.19;100.00
12897;BME280;6516;35.028;32.372;2024-02-14T11:34:13;99104.97;;;17.02;100.00
12897;BME280;6516;35.028;32.372;2024-02-14T11:36:42;99105.63;;;17.05;100.00
12897;BME280;6516;35.028;32.372;2024-02-14T11:39:10;99102.56;;;17.41;100.00
12897;BME280;6516;35.028;32.372;2024-02-14T11:41:39;99101.78;;;17.67;100.00
12897;BME280;6516;35.028;32.372;2024-02-14T11:44:08;99103.03;;;17.61;100.00
12897;BME280;6516;35.028;32.372;2024-02-14T11:46:39;99098.75;;;17.73;100.00
12897;BME280;6516;35.028;32.372;2024-02-14T11:49:07;99101.41;;;18.13;100.00
12897;BME280;6516;35.028;32.372;2024-02-14T11:51:36;99101.53;;;18.24;100.00
12897;BME280;6516;35.028;32.372;2024-02-14T11:54:05;99095.19;;;18.53;100.00
12897;BME280;6516;35.028;32.372;2024-02-14T11:56:33;99093.69;;;19.01;100.00
12897;BME280;6516;35.028;32.372;2024-02-14T11:59:04;99094.22;;;18.93;100.00
12897;BME280;6516;35.028;32.372;2024-02-14T12:01:34;99098.06;;;19.02;100.00
12897;BME280;6516;35.028;32.372;2024-02-14T12:04:05;99095.94;;;18.94;100.00
12897;BME280;6516;35.028;32.372;2024-02-14T12:06:34;99102.44;;;19.03;100.00
12897;BME280;6516;35.028;32.372;2024-02-14T12:09:04;99101.69;;;19.01;100.00
12897;BME280;6516;35.028;32.372;2024-02-14T12:11:35;99110.47;;;19.15;99.82
12897;BME280;6516;35.028;32.372;2024-02-14T12:14:05;99108.84;;;19.13;100.00
12897;BME280;6516;35.028;32.372;2024-02-14T12:16:34;99105.09;;;18.78;96.82
12897;BME280;6516;35.028;32.372;2024-02-14T12:19:06;99106.41;;;19.10;100.00
12897;BME280;6516;35.028;32.372;2024-02-14T12:21:35;99107.06;;;19.26;100.00
12897;BME280;6516;35.028;32.372;2024-02-14T12:24:06;99103.50;;;19.13;97.74
12897;BME280;6516;35.028;32.372;2024-02-14T12:26:35;99104.66;;;18.31;99.61
12897;BME280;6516;35.028;32.372;2024-02-14T12:29:03;99105.50;;;18.19;100.00
12897;BME280;6516;35.028;32.372;2024-02-14T12:31:32;99107.09;;;17.81;100.00
12897;BME280;6516;35.028;32.372;2024-02-14T12:34:02;99121.94;;;17.57;100.00
12897;BME280;6516;35.028;32.372;2024-02-14T12:36:32;99118.63;;;17.39;100.00
12897;BME280;6516;35.028;32.372;2024-02-14T12:39:01;99123.31;;;17.50;100.00
12897;BME280;6516;35.028;32.372;2024-02-14T12:41:29;99123.63;;;17.72;100.00
12897;BME280;6516;35.028;32.372;2024-02-14T12:43:58;99126.78;;;17.50;100.00
12897;BME280;6516;35.028;32.372;2024-02-14T12:46:27;99127.09;;;17.46;100.00
12897;BME280;6516;35.028;32.372;2024-02-14T12:48:55;99134.59;;;17.39;100.00
12897;BME280;6516;35.028;32.372;2024-02-14T12:51:25;99135.25;;;17.71;100.00
12897;BME280;6516;35.028;32.372;2024-02-14T12:53:54;99126.28;;;17.86;100.00
12897;BME280;6516;35.028;32.372;2024-02-14T12:56:24;99134.84;;;17.77;100.00